Aérodrome :
LOGIN :

S'inscrire | Disclaimer

   EN    FR    IT 

 










Légende :    VFR   VFR Marginal   IFR   IFR Intensif   IFR Très Intensif
Visi : 
Plafond : 
>= 8 km
>= 3000ft
5 à 8 km
1000 à 3000 ft
1500m à 5 km
500 à 1000 ft
800 à 1500m
200 à 500 ft
< 800m
< 200 ft
Symboles :   Orages  Brouillard  Fortes neiges  Fortes précipitations  Vent > 20 kt
SIGMETs :   Divers  Orages  Givrage  Turbulence  Onde Orograph.  Cendres Volcan.







- Altitude de l'aérodrome : 1046 ft
- Code IATA : NUE


EDDN - Nuremberg

DERNIER METAR :
  • 140750Z 26020KT 9999 FEW035 04/M02 Q0998 R28/29//95 NOSIG

METARs EXPIRÉS :
  • 140720Z 26022G35KT 9999 FEW035 04/M03 Q0997 R28/29//95 NOSIG
  • 140650Z 25022G35KT 9999 FEW010 FEW020CB SCT035 04/M01 Q0996 RETS R28/29//95 TEMPO 25025G40KT
  • 140620Z 24018KT 220V280 9999 FEW010 SCT037 05/01 Q0995 RETS R28/29//95 TEMPO 25025G40KT
  • 140550Z 23018G28KT 9999 FEW010 BKN040 BKN110 05/02 Q0994 RETS R28/29//95 TEMPO 25025G40KT
  • 140520Z 19009KT 9000 -TSRA FEW010 BKN020CB 05/03 Q0994 R28/29//95 BECMG 25025G40KT 4000 TSRA

TAF TAF EDDN
Valide du 14 à 06h jusqu'au 15 à 06h UTC


140500Z 1406/1506 20015G25KT 9999 SCT020 BKN040
TEMPO 1406/1409 24020G35KT 3500 SHRA BKN020TCU
PROB40
TEMPO 1406/1408 TSGS BKN014CB
BECMG 1416/1418 20010KT
TEMPO 1420/1506 4000 RASN BKN009
Pas de NOTAMs connus pour ce terrain.
3 SIGMETs publiés pour la FIR München (EDMM) :
 
Orages en lignes de grains
EDMM SIGMET 4 VALID 140620/140800 EDZM
EDMM MUNCHEN FIR SQL TS OBS APRX 20NM WID LINE BTN N4740 E00945 - N4902 E01255 TOP FL220 MOV E 50KT NC=
Turbulence forte
EDMM SIGMET 3 VALID 140430/140800 EDZM
EDMM MUNCHEN FIR SEV TURB FCST S OF LINE N4800 E00933 - N4802 E01250 SFC/FL150 STNR NC=
Turbulence forte
EDMM SIGMET 2 VALID 140417/140800 EDZM
EDMM MUNCHEN FIR SEV TURB FCST S OF LINE N4855 E00959 - N4855 E01344 SFC/FL060 STNR NC=



MET'MAP, la Météo Aéronautique d'un coup d'oeil ! - Copyright ORBIFLY Décembre 2007 - Disclaimer

ORBIFLY MET'MAP TEAM :

Programmation & Développement : Alexandra Zaïnal
Conception & Développement : Baudouin d'Aumeries
Co-Programmation & Développement : Marc-Olivier Méhu
Soutien technique & logistique : Manuel Goepfert

Contact : metmap@orbifly.com




SOURCES & CREDITS :

   NOAA